sensor_id;sensor_type;location;lat;lon;timestamp;temperature;humidity
27567;DHT22;15006;48.584;9.186;2023-04-01T00:01:29;5.00;99.90
27567;DHT22;15006;48.584;9.186;2023-04-01T00:03:59;5.00;99.90
27567;DHT22;15006;48.584;9.186;2023-04-01T00:06:28;5.00;99.90
27567;DHT22;15006;48.584;9.186;2023-04-01T00:08:54;5.00;99.90
27567;DHT22;15006;48.584;9.186;2023-04-01T00:11:20;5.00;99.90
27567;DHT22;15006;48.584;9.186;2023-04-01T00:13:46;5.10;99.90
27567;DHT22;15006;48.584;9.186;2023-04-01T00:16:13;5.10;99.90
27567;DHT22;15006;48.584;9.186;2023-04-01T00:18:39;5.10;99.90
27567;DHT22;15006;48.584;9.186;2023-04-01T00:21:06;5.10;99.90
27567;DHT22;15006;48.584;9.186;2023-04-01T00:23:32;5.10;99.90
27567;DHT22;15006;48.584;9.186;2023-04-01T00:26:02;5.10;99.90
27567;DHT22;15006;48.584;9.186;2023-04-01T00:28:29;5.10;99.90
27567;DHT22;15006;48.584;9.186;2023-04-01T00:30:55;5.10;99.90
27567;DHT22;15006;48.584;9.186;2023-04-01T00:33:22;5.20;99.90
27567;DHT22;15006;48.584;9.186;2023-04-01T00:35:48;5.10;99.90
27567;DHT22;15006;48.584;9.186;2023-04-01T00:38:14;5.10;99.90
27567;DHT22;15006;48.584;9.186;2023-04-01T00:40:43;5.10;99.90
27567;DHT22;15006;48.584;9.186;2023-04-01T00:43:14;5.10;99.90
27567;DHT22;15006;48.584;9.186;2023-04-01T00:45:49;5.10;99.90
27567;DHT22;15006;48.584;9.186;2023-04-01T00:48:22;5.10;99.90
27567;DHT22;15006;48.584;9.186;2023-04-01T00:50:57;5.00;99.90
27567;DHT22;15006;48.584;9.186;2023-04-01T00:53:25;5.00;99.90
27567;DHT22;15006;48.584;9.186;2023-04-01T00:56:10;5.00;99.90
27567;DHT22;15006;48.584;9.186;2023-04-01T00:58:41;5.00;99.90
27567;DHT22;15006;48.584;9.186;2023-04-01T01:01:10;5.00;99.90
27567;DHT22;15006;48.584;9.186;2023-04-01T01:03:36;4.90;99.90
27567;DHT22;15006;48.584;9.186;2023-04-01T01:13:13;4.90;99.90
27567;DHT22;15006;48.584;9.186;2023-04-01T01:16:36;4.80;99.90
27567;DHT22;15006;48.584;9.186;2023-04-01T01:19:26;4.80;99.90
27567;DHT22;15006;48.584;9.186;2023-04-01T01:25:39;4.80;99.90
27567;DHT22;15006;48.584;9.186;2023-04-01T01:28:32;4.80;99.90
27567;DHT22;15006;48.584;9.186;2023-04-01T01:31:30;4.80;99.90
27567;DHT22;15006;48.584;9.186;2023-04-01T01:34:36;4.80;99.90
27567;DHT22;15006;48.584;9.186;2023-04-01T01:37:10;4.70;99.90
27567;DHT22;15006;48.584;9.186;2023-04-01T01:39:39;4.80;99.90
27567;DHT22;15006;48.584;9.186;2023-04-01T01:42:10;4.70;99.90
27567;DHT22;15006;48.584;9.186;2023-04-01T01:44:38;4.80;99.90
27567;DHT22;15006;48.584;9.186;2023-04-01T01:47:06;4.80;99.90
27567;DHT22;15006;48.584;9.186;2023-04-01T01:49:33;4.80;99.90
27567;DHT22;15006;48.584;9.186;2023-04-01T01:52:01;4.80;99.90
27567;DHT22;15006;48.584;9.186;2023-04-01T01:54:27;4.80;99.90
27567;DHT22;15006;48.584;9.186;2023-04-01T01:57:06;4.80;99.90
27567;DHT22;15006;48.584;9.186;2023-04-01T01:59:35;4.80;99.90
27567;DHT22;15006;48.584;9.186;2023-04-01T02:02:03;4.70;99.90
27567;DHT22;15006;48.584;9.186;2023-04-01T02:04:38;4.70;99.90
27567;DHT22;15006;48.584;9.186;2023-04-01T02:07:10;4.70;99.90
27567;DHT22;15006;48.584;9.186;2023-04-01T02:09:41;4.70;99.90
27567;DHT22;15006;48.584;9.186;2023-04-01T02:12:11;4.70;99.90
27567;DHT22;15006;48.584;9.186;2023-04-01T02:15:07;4.70;99.90
27567;DHT22;15006;48.584;9.186;2023-04-01T02:17:39;4.80;99.90
27567;DHT22;15006;48.584;9.186;2023-04-01T02:20:14;4.70;99.90
27567;DHT22;15006;48.584;9.186;2023-04-01T02:22:49;4.70;99.90
27567;DHT22;15006;48.584;9.186;2023-04-01T02:25:20;4.70;99.90
27567;DHT22;15006;48.584;9.186;2023-04-01T02:27:49;4.80;99.90
27567;DHT22;15006;48.584;9.186;2023-04-01T02:30:16;4.80;99.90
27567;DHT22;15006;48.584;9.186;2023-04-01T02:32:43;4.80;99.90
27567;DHT22;15006;48.584;9.186;2023-04-01T02:35:11;4.80;99.90
27567;DHT22;15006;48.584;9.186;2023-04-01T02:37:42;4.80;99.90
27567;DHT22;15006;48.584;9.186;2023-04-01T02:40:12;4.70;99.90
27567;DHT22;15006;48.584;9.186;2023-04-01T02:42:39;4.80;99.90
27567;DHT22;15006;48.584;9.186;2023-04-01T02:45:06;4.70;99.90
27567;DHT22;15006;48.584;9.186;2023-04-01T02:47:33;4.70;99.90
27567;DHT22;15006;48.584;9.186;2023-04-01T02:49:59;4.70;99.90
27567;DHT22;15006;48.584;9.186;2023-04-01T02:52:26;4.70;99.90
27567;DHT22;15006;48.584;9.186;2023-04-01T02:54:57;4.70;99.90
27567;DHT22;15006;48.584;9.186;2023-04-01T02:57:24;4.70;99.90
27567;DHT22;15006;48.584;9.186;2023-04-01T02:59:50;4.70;99.90
27567;DHT22;15006;48.584;9.186;2023-04-01T03:02:16;4.70;99.90
27567;DHT22;15006;48.584;9.186;2023-04-01T03:04:42;4.60;99.90
27567;DHT22;15006;48.584;9.186;2023-04-01T03:07:09;4.60;99.90
27567;DHT22;15006;48.584;9.186;2023-04-01T03:09:39;4.60;99.90
27567;DHT22;15006;48.584;9.186;2023-04-01T03:12:06;4.60;99.90
27567;DHT22;15006;48.584;9.186;2023-04-01T03:14:32;4.50;99.90
27567;DHT22;15006;48.584;9.186;2023-04-01T03:16:57;4.50;99.90
27567;DHT22;15006;48.584;9.186;2023-04-01T03:19:23;4.40;99.90
27567;DHT22;15006;48.584;9.186;2023-04-01T03:21:49;4.50;99.90
27567;DHT22;15006;48.584;9.186;2023-04-01T03:24:15;4.40;99.90
27567;DHT22;15006;48.584;9.186;2023-04-01T03:26:41;4.40;99.90
27567;DHT22;15006;48.584;9.186;2023-04-01T03:29:08;4.40;99.90
27567;DHT22;15006;48.584;9.186;2023-04-01T03:31:33;4.40;99.90
27567;DHT22;15006;48.584;9.186;2023-04-01T03:34:00;4.30;99.90
27567;DHT22;15006;48.584;9.186;2023-04-01T03:36:26;4.40;99.90
27567;DHT22;15006;48.584;9.186;2023-04-01T03:38:52;4.40;99.90
27567;DHT22;15006;48.584;9.186;2023-04-01T03:41:18;4.30;99.90
27567;DHT22;15006;48.584;9.186;2023-04-01T03:43:45;4.40;99.90
27567;DHT22;15006;48.584;9.186;2023-04-01T03:46:10;4.30;99.90
27567;DHT22;15006;48.584;9.186;2023-04-01T03:48:36;4.20;99.90
27567;DHT22;15006;48.584;9.186;2023-04-01T03:51:07;4.30;99.90
27567;DHT22;15006;48.584;9.186;2023-04-01T03:53:33;4.20;99.90
27567;DHT22;15006;48.584;9.186;2023-04-01T03:56:07;4.20;99.90
27567;DHT22;15006;48.584;9.186;2023-04-01T03:58:35;4.20;99.90
27567;DHT22;15006;48.584;9.186;2023-04-01T04:01:01;4.10;99.90
27567;DHT22;15006;48.584;9.186;2023-04-01T04:03:27;4.10;99.90
27567;DHT22;15006;48.584;9.186;2023-04-01T04:05:53;4.10;99.90
27567;DHT22;15006;48.584;9.186;2023-04-01T04:08:21;4.10;99.90
27567;DHT22;15006;48.584;9.186;2023-04-01T04:10:47;4.10;99.90
27567;DHT22;15006;48.584;9.186;2023-04-01T04:13:13;4.10;99.90
27567;DHT22;15006;48.584;9.186;2023-04-01T04:15:40;4.10;99.90
27567;DHT22;15006;48.584;9.186;2023-04-01T04:18:06;4.10;99.90
27567;DHT22;15006;48.584;9.186;2023-04-01T04:20:32;4.10;99.90
27567;DHT22;15006;48.584;9.186;2023-04-01T04:22:58;4.10;99.90
27567;DHT22;15006;48.584;9.186;2023-04-01T04:25:25;4.10;99.90
27567;DHT22;15006;48.584;9.186;2023-04-01T04:27:51;4.00;99.90
27567;DHT22;15006;48.584;9.186;2023-04-01T04:30:17;4.00;99.90
27567;DHT22;15006;48.584;9.186;2023-04-01T04:32:43;4.00;99.90
27567;DHT22;15006;48.584;9.186;2023-04-01T04:35:10;4.00;99.90
27567;DHT22;15006;48.584;9.186;2023-04-01T04:37:36;3.90;99.90
27567;DHT22;15006;48.584;9.186;2023-04-01T04:40:02;3.90;99.90
27567;DHT22;15006;48.584;9.186;2023-04-01T04:42:28;3.90;99.90
27567;DHT22;15006;48.584;9.186;2023-04-01T04:44:54;3.90;99.90
27567;DHT22;15006;48.584;9.186;2023-04-01T04:47:21;3.90;99.90
27567;DHT22;15006;48.584;9.186;2023-04-01T04:49:47;3.90;99.90
27567;DHT22;15006;48.584;9.186;2023-04-01T04:52:13;3.90;99.90
27567;DHT22;15006;48.584;9.186;2023-04-01T04:54:39;3.90;99.90
27567;DHT22;15006;48.584;9.186;2023-04-01T04:57:05;3.90;99.90
27567;DHT22;15006;48.584;9.186;2023-04-01T04:59:31;4.00;99.90
27567;DHT22;15006;48.584;9.186;2023-04-01T05:01:57;4.00;99.90
27567;DHT22;15006;48.584;9.186;2023-04-01T05:04:23;4.00;99.90
27567;DHT22;15006;48.584;9.186;2023-04-01T05:06:49;4.10;99.90
27567;DHT22;15006;48.584;9.186;2023-04-01T05:09:15;4.10;99.90
27567;DHT22;15006;48.584;9.186;2023-04-01T05:11:41;4.10;99.90
27567;DHT22;15006;48.584;9.186;2023-04-01T05:14:12;4.10;99.90
27567;DHT22;15006;48.584;9.186;2023-04-01T05:16:39;4.10;99.90
27567;DHT22;15006;48.584;9.186;2023-04-01T05:19:05;4.10;99.90
27567;DHT22;15006;48.584;9.186;2023-04-01T05:21:31;4.10;99.90
27567;DHT22;15006;48.584;9.186;2023-04-01T05:23:57;4.20;99.90
27567;DHT22;15006;48.584;9.186;2023-04-01T05:26:23;4.20;99.90
27567;DHT22;15006;48.584;9.186;2023-04-01T05:28:49;4.20;99.90
27567;DHT22;15006;48.584;9.186;2023-04-01T05:31:15;4.30;99.90
27567;DHT22;15006;48.584;9.186;2023-04-01T05:33:41;4.20;99.90
27567;DHT22;15006;48.584;9.186;2023-04-01T05:36:13;4.30;99.90
27567;DHT22;15006;48.584;9.186;2023-04-01T05:38:40;4.30;99.90
27567;DHT22;15006;48.584;9.186;2023-04-01T05:41:07;4.30;99.90
27567;DHT22;15006;48.584;9.186;2023-04-01T05:43:38;4.40;99.90
27567;DHT22;15006;48.584;9.186;2023-04-01T05:46:05;4.40;99.90
27567;DHT22;15006;48.584;9.186;2023-04-01T05:48:33;4.50;99.90
27567;DHT22;15006;48.584;9.186;2023-04-01T05:51:01;4.50;99.90
27567;DHT22;15006;48.584;9.186;2023-04-01T05:53:27;4.50;99.90
27567;DHT22;15006;48.584;9.186;2023-04-01T05:55:53;4.60;99.90
27567;DHT22;15006;48.584;9.186;2023-04-01T05:58:19;4.60;99.90
27567;DHT22;15006;48.584;9.186;2023-04-01T06:00:45;4.60;99.90
27567;DHT22;15006;48.584;9.186;2023-04-01T06:03:11;4.70;99.90
27567;DHT22;15006;48.584;9.186;2023-04-01T06:05:43;4.70;99.90
27567;DHT22;15006;48.584;9.186;2023-04-01T06:11:04;4.70;99.90
27567;DHT22;15006;48.584;9.186;2023-04-01T06:14:30;4.80;97.40
27567;DHT22;15006;48.584;9.186;2023-04-01T06:20:26;4.90;99.90
27567;DHT22;15006;48.584;9.186;2023-04-01T06:29:05;5.00;96.30
27567;DHT22;15006;48.584;9.186;2023-04-01T06:32:22;5.10;96.20
27567;DHT22;15006;48.584;9.186;2023-04-01T06:37:57;5.10;97.90
27567;DHT22;15006;48.584;9.186;2023-04-01T06:52:02;5.30;96.80
27567;DHT22;15006;48.584;9.186;2023-04-01T06:57:49;5.40;96.40
27567;DHT22;15006;48.584;9.186;2023-04-01T07:00:26;5.50;97.70
27567;DHT22;15006;48.584;9.186;2023-04-01T07:03:18;5.50;97.10
27567;DHT22;15006;48.584;9.186;2023-04-01T07:05:47;5.50;95.90
27567;DHT22;15006;48.584;9.186;2023-04-01T07:08:28;5.50;97.50
27567;DHT22;15006;48.584;9.186;2023-04-01T07:11:00;5.60;96.10
27567;DHT22;15006;48.584;9.186;2023-04-01T07:13:39;5.50;97.00
27567;DHT22;15006;48.584;9.186;2023-04-01T07:16:14;5.60;96.00
27567;DHT22;15006;48.584;9.186;2023-04-01T07:18:45;5.60;96.10
27567;DHT22;15006;48.584;9.186;2023-04-01T07:23:54;5.70;96.70
27567;DHT22;15006;48.584;9.186;2023-04-01T07:26:26;5.70;96.90
27567;DHT22;15006;48.584;9.186;2023-04-01T07:28:53;5.80;97.10
27567;DHT22;15006;48.584;9.186;2023-04-01T07:34:25;5.80;94.70
27567;DHT22;15006;48.584;9.186;2023-04-01T07:37:15;5.80;96.20
27567;DHT22;15006;48.584;9.186;2023-04-01T07:48:25;5.80;96.30
27567;DHT22;15006;48.584;9.186;2023-04-01T07:51:08;5.90;97.00
27567;DHT22;15006;48.584;9.186;2023-04-01T08:08:16;6.00;96.10
27567;DHT22;15006;48.584;9.186;2023-04-01T08:10:52;6.00;96.40
27567;DHT22;15006;48.584;9.186;2023-04-01T08:13:39;6.10;94.90
27567;DHT22;15006;48.584;9.186;2023-04-01T08:21:42;6.00;94.80
27567;DHT22;15006;48.584;9.186;2023-04-01T08:24:25;6.00;94.70
27567;DHT22;15006;48.584;9.186;2023-04-01T08:26:57;5.90;95.10
27567;DHT22;15006;48.584;9.186;2023-04-01T08:29:48;5.90;95.90
27567;DHT22;15006;48.584;9.186;2023-04-01T08:32:25;5.80;94.90
27567;DHT22;15006;48.584;9.186;2023-04-01T08:35:06;5.80;96.50
27567;DHT22;15006;48.584;9.186;2023-04-01T08:37:38;5.70;96.80
27567;DHT22;15006;48.584;9.186;2023-04-01T08:43:00;5.70;96.30
27567;DHT22;15006;48.584;9.186;2023-04-01T08:46:13;5.70;96.50
27567;DHT22;15006;48.584;9.186;2023-04-01T08:49:31;5.60;97.00
27567;DHT22;15006;48.584;9.186;2023-04-01T08:52:17;5.60;97.30
27567;DHT22;15006;48.584;9.186;2023-04-01T09:04:08;5.60;97.50
27567;DHT22;15006;48.584;9.186;2023-04-01T09:12:44;5.50;98.70
27567;DHT22;15006;48.584;9.186;2023-04-01T09:15:36;5.60;97.60
27567;DHT22;15006;48.584;9.186;2023-04-01T09:24:43;5.60;99.90
27567;DHT22;15006;48.584;9.186;2023-04-01T09:34:01;5.90;99.90
27567;DHT22;15006;48.584;9.186;2023-04-01T09:40:18;6.00;99.90
27567;DHT22;15006;48.584;9.186;2023-04-01T09:43:15;6.00;98.90
27567;DHT22;15006;48.584;9.186;2023-04-01T09:58:15;6.00;99.60
27567;DHT22;15006;48.584;9.186;2023-04-01T10:09:10;6.00;99.90
27567;DHT22;15006;48.584;9.186;2023-04-01T10:26:53;5.90;99.30
27567;DHT22;15006;48.584;9.186;2023-04-01T10:54:17;5.90;99.90
27567;DHT22;15006;48.584;9.186;2023-04-01T10:59:36;6.00;99.90
27567;DHT22;15006;48.584;9.186;2023-04-01T11:05:07;6.20;99.90
27567;DHT22;15006;48.584;9.186;2023-04-01T11:20:27;6.50;99.90
27567;DHT22;15006;48.584;9.186;2023-04-01T11:23:14;6.60;99.90
27567;DHT22;15006;48.584;9.186;2023-04-01T11:26:02;6.70;99.80
27567;DHT22;15006;48.584;9.186;2023-04-01T11:41:09;6.80;97.50
27567;DHT22;15006;48.584;9.186;2023-04-01T11:44:24;6.70;97.20
27567;DHT22;15006;48.584;9.186;2023-04-01T11:53:23;6.60;96.00
27567;DHT22;15006;48.584;9.186;2023-04-01T12:08:02;6.90;97.80
27567;DHT22;15006;48.584;9.186;2023-04-01T12:14:14;7.10;97.00
27567;DHT22;15006;48.584;9.186;2023-04-01T12:17:25;7.20;97.20
27567;DHT22;15006;48.584;9.186;2023-04-01T12:20:30;7.20;95.80
27567;DHT22;15006;48.584;9.186;2023-04-01T12:32:55;7.50;96.20
27567;DHT22;15006;48.584;9.186;2023-04-01T12:39:11;7.80;95.60
27567;DHT22;15006;48.584;9.186;2023-04-01T12:48:42;7.80;92.20
27567;DHT22;15006;48.584;9.186;2023-04-01T12:54:40;7.70;92.80
27567;DHT22;15006;48.584;9.186;2023-04-01T13:00:12;7.70;92.10
27567;DHT22;15006;48.584;9.186;2023-04-01T13:05:53;7.70;90.70
27567;DHT22;15006;48.584;9.186;2023-04-01T13:09:04;7.80;92.10
27567;DHT22;15006;48.584;9.186;2023-04-01T13:17:40;8.30;91.50
27567;DHT22;15006;48.584;9.186;2023-04-01T13:43:34;8.60;85.90
27567;DHT22;15006;48.584;9.186;2023-04-01T13:52:03;8.30;88.10
27567;DHT22;15006;48.584;9.186;2023-04-01T13:54:50;8.30;86.90
27567;DHT22;15006;48.584;9.186;2023-04-01T14:03:39;8.10;88.10
27567;DHT22;15006;48.584;9.186;2023-04-01T14:09:31;8.10;88.70
27567;DHT22;15006;48.584;9.186;2023-04-01T14:15:25;8.10;87.20
27567;DHT22;15006;48.584;9.186;2023-04-01T14:18:27;8.10;88.80
27567;DHT22;15006;48.584;9.186;2023-04-01T14:21:37;8.10;88.80
27567;DHT22;15006;48.584;9.186;2023-04-01T14:47:46;7.80;91.20
27567;DHT22;15006;48.584;9.186;2023-04-01T14:50:18;7.80;88.60
27567;DHT22;15006;48.584;9.186;2023-04-01T14:53:28;7.70;89.10
27567;DHT22;15006;48.584;9.186;2023-04-01T14:55:58;7.70;88.40
27567;DHT22;15006;48.584;9.186;2023-04-01T14:58:47;7.70;89.70
27567;DHT22;15006;48.584;9.186;2023-04-01T15:04:17;7.70;89.00
27567;DHT22;15006;48.584;9.186;2023-04-01T15:27:53;7.70;88.10
27567;DHT22;15006;48.584;9.186;2023-04-01T15:36:08;7.60;90.60
27567;DHT22;15006;48.584;9.186;2023-04-01T15:41:36;7.60;90.80
27567;DHT22;15006;48.584;9.186;2023-04-01T15:46:58;7.50;90.10
27567;DHT22;15006;48.584;9.186;2023-04-01T15:49:41;7.50;91.10
27567;DHT22;15006;48.584;9.186;2023-04-01T15:56:25;7.40;88.90
27567;DHT22;15006;48.584;9.186;2023-04-01T16:19:51;7.30;91.60
27567;DHT22;15006;48.584;9.186;2023-04-01T16:22:35;7.40;92.30
27567;DHT22;15006;48.584;9.186;2023-04-01T16:25:31;7.30;92.20
27567;DHT22;15006;48.584;9.186;2023-04-01T16:36:30;7.40;91.30
27567;DHT22;15006;48.584;9.186;2023-04-01T16:39:22;7.40;90.80
27567;DHT22;15006;48.584;9.186;2023-04-01T16:45:30;7.30;92.60
27567;DHT22;15006;48.584;9.186;2023-04-01T16:47:40;7.30;91.10
27567;DHT22;15006;48.584;9.186;2023-04-01T16:50:25;7.30;91.20
27567;DHT22;15006;48.584;9.186;2023-04-01T16:58:27;7.20;90.60
27567;DHT22;15006;48.584;9.186;2023-04-01T17:03:46;7.20;91.30
27567;DHT22;15006;48.584;9.186;2023-04-01T17:06:31;7.20;91.40
27567;DHT22;15006;48.584;9.186;2023-04-01T17:09:04;7.20;92.00
27567;DHT22;15006;48.584;9.186;2023-04-01T17:14:31;7.20;92.10
27567;DHT22;15006;48.584;9.186;2023-04-01T17:17:45;7.10;93.10
27567;DHT22;15006;48.584;9.186;2023-04-01T17:23:01;7.10;92.40
27567;DHT22;15006;48.584;9.186;2023-04-01T17:26:37;7.10;91.40
27567;DHT22;15006;48.584;9.186;2023-04-01T17:29:28;7.10;91.40
27567;DHT22;15006;48.584;9.186;2023-04-01T17:32:37;7.00;91.40
27567;DHT22;15006;48.584;9.186;2023-04-01T17:35:12;7.00;91.50
27567;DHT22;15006;48.584;9.186;2023-04-01T17:40:44;7.00;92.40
27567;DHT22;15006;48.584;9.186;2023-04-01T17:49:33;6.90;94.10
27567;DHT22;15006;48.584;9.186;2023-04-01T17:56:11;6.90;92.90
27567;DHT22;15006;48.584;9.186;2023-04-01T17:59:01;6.90;93.40
27567;DHT22;15006;48.584;9.186;2023-04-01T18:08:08;6.80;92.60
27567;DHT22;15006;48.584;9.186;2023-04-01T18:17:20;6.80;92.60
27567;DHT22;15006;48.584;9.186;2023-04-01T18:22:29;6.80;92.50
27567;DHT22;15006;48.584;9.186;2023-04-01T18:25:20;6.90;94.10
27567;DHT22;15006;48.584;9.186;2023-04-01T18:31:07;6.90;92.80
27567;DHT22;15006;48.584;9.186;2023-04-01T18:39:39;6.80;92.90
27567;DHT22;15006;48.584;9.186;2023-04-01T18:42:16;6.70;93.30
27567;DHT22;15006;48.584;9.186;2023-04-01T18:45:37;6.60;94.20
27567;DHT22;15006;48.584;9.186;2023-04-01T18:51:17;6.30;93.30
27567;DHT22;15006;48.584;9.186;2023-04-01T18:54:00;6.20;94.20
27567;DHT22;15006;48.584;9.186;2023-04-01T18:56:35;6.00;94.90
27567;DHT22;15006;48.584;9.186;2023-04-01T19:02:17;5.90;96.50
27567;DHT22;15006;48.584;9.186;2023-04-01T19:05:09;5.70;96.00
27567;DHT22;15006;48.584;9.186;2023-04-01T19:07:50;5.70;96.90
27567;DHT22;15006;48.584;9.186;2023-04-01T19:10:41;5.60;97.60
27567;DHT22;15006;48.584;9.186;2023-04-01T19:19:55;5.40;98.30
27567;DHT22;15006;48.584;9.186;2023-04-01T19:23:00;5.30;98.40
27567;DHT22;15006;48.584;9.186;2023-04-01T19:25:54;5.20;98.50
27567;DHT22;15006;48.584;9.186;2023-04-01T19:31:39;5.00;98.30
27567;DHT22;15006;48.584;9.186;2023-04-01T19:43:26;4.70;99.90
27567;DHT22;15006;48.584;9.186;2023-04-01T19:46:00;4.60;99.90
27567;DHT22;15006;48.584;9.186;2023-04-01T19:51:48;4.50;99.90
27567;DHT22;15006;48.584;9.186;2023-04-01T20:00:33;4.30;99.00
27567;DHT22;15006;48.584;9.186;2023-04-01T20:06:23;4.10;99.40
27567;DHT22;15006;48.584;9.186;2023-04-01T20:15:03;3.90;99.90
27567;DHT22;15006;48.584;9.186;2023-04-01T20:17:54;3.90;99.90
27567;DHT22;15006;48.584;9.186;2023-04-01T20:20:23;3.80;99.90
27567;DHT22;15006;48.584;9.186;2023-04-01T20:26:06;3.70;99.90
27567;DHT22;15006;48.584;9.186;2023-04-01T20:31:43;3.70;99.90
27567;DHT22;15006;48.584;9.186;2023-04-01T20:34:43;3.60;99.90
27567;DHT22;15006;48.584;9.186;2023-04-01T20:40:37;3.60;99.90
27567;DHT22;15006;48.584;9.186;2023-04-01T20:45:58;3.60;99.90
27567;DHT22;15006;48.584;9.186;2023-04-01T20:51:32;3.70;99.90
27567;DHT22;15006;48.584;9.186;2023-04-01T21:02:48;3.90;99.90
27567;DHT22;15006;48.584;9.186;2023-04-01T21:05:46;3.90;99.90
27567;DHT22;15006;48.584;9.186;2023-04-01T21:23:29;4.20;99.90
27567;DHT22;15006;48.584;9.186;2023-04-01T21:32:24;4.30;99.90
27567;DHT22;15006;48.584;9.186;2023-04-01T21:49:44;4.60;99.90
27567;DHT22;15006;48.584;9.186;2023-04-01T22:07:17;4.70;99.90
27567;DHT22;15006;48.584;9.186;2023-04-01T22:17:51;4.70;99.90
27567;DHT22;15006;48.584;9.186;2023-04-01T22:20:28;4.70;99.90
27567;DHT22;15006;48.584;9.186;2023-04-01T22:26:02;4.70;99.90
27567;DHT22;15006;48.584;9.186;2023-04-01T22:28:47;4.70;99.90
27567;DHT22;15006;48.584;9.186;2023-04-01T22:31:43;4.70;99.90
27567;DHT22;15006;48.584;9.186;2023-04-01T22:34:20;4.70;99.90
27567;DHT22;15006;48.584;9.186;2023-04-01T22:43:12;4.60;99.90
27567;DHT22;15006;48.584;9.186;2023-04-01T22:48:22;4.60;99.90
27567;DHT22;15006;48.584;9.186;2023-04-01T22:51:41;4.60;99.90
27567;DHT22;15006;48.584;9.186;2023-04-01T22:56:50;4.50;99.90
27567;DHT22;15006;48.584;9.186;2023-04-01T22:59:35;4.50;99.90
27567;DHT22;15006;48.584;9.186;2023-04-01T23:02:16;4.50;99.90
27567;DHT22;15006;48.584;9.186;2023-04-01T23:05:02;4.50;99.90
27567;DHT22;15006;48.584;9.186;2023-04-01T23:07:56;4.40;99.90
27567;DHT22;15006;48.584;9.186;2023-04-01T23:10:59;4.40;99.90
27567;DHT22;15006;48.584;9.186;2023-04-01T23:13:44;4.40;99.90
27567;DHT22;15006;48.584;9.186;2023-04-01T23:16:15;4.40;99.90
27567;DHT22;15006;48.584;9.186;2023-04-01T23:19:15;4.40;99.90
27567;DHT22;15006;48.584;9.186;2023-04-01T23:21:51;4.40;99.90
27567;DHT22;15006;48.584;9.186;2023-04-01T23:29:40;4.30;99.90
27567;DHT22;15006;48.584;9.186;2023-04-01T23:32:18;4.30;99.90
27567;DHT22;15006;48.584;9.186;2023-04-01T23:34:51;4.30;99.90
27567;DHT22;15006;48.584;9.186;2023-04-01T23:37:23;4.30;99.90
27567;DHT22;15006;48.584;9.186;2023-04-01T23:39:57;4.30;99.90
27567;DHT22;15006;48.584;9.186;2023-04-01T23:42:37;4.20;99.90
27567;DHT22;15006;48.584;9.186;2023-04-01T23:45:13;4.30;99.90
27567;DHT22;15006;48.584;9.186;2023-04-01T23:47:46;4.30;99.90
27567;DHT22;15006;48.584;9.186;2023-04-01T23:50:20;4.20;99.90
27567;DHT22;15006;48.584;9.186;2023-04-01T23:53:19;4.20;99.90
27567;DHT22;15006;48.584;9.186;2023-04-01T23:55:52;4.20;99.90
27567;DHT22;15006;48.584;9.186;2023-04-01T23:58:27;4.10;99.90
